Terminal Aerodrome Forecast
Issued by NWS

Home | Current Version | Previous Version | Text Only | Print | Product List | Glossary On
Versions: 1 2 3 4 5 6 7 8 9 10 11 12 13 14 15 16 17 18
000
FTUS44 KLZK 261132 AAA
TAFLLQ
TAF AMD
KLLQ 261132Z 2612/2712 18006KT 3SM BR BKN010 OVC050
      TEMPO 2612/2614 1/4SM FG BKN002
     FM261500 17008KT P6SM SCT010 BKN025
     FM261800 18010KT P6SM VCTS SCT030CB BKN100
     FM270000 18008KT P6SM VCTS BKN025CB OVC030 PROB30 2706/2712 3SM
      TSRA BR BKN010CB=

USA.gov is the U.S. government's official web portal to all federal, state and local government web resources and services.